LNI371 WIDD-WIII
Flight info
| Callsign | LNI371 |
|---|---|
| Flight time | 1h 19m |
| Altitude | 36000 |
| Route | ANITO B470 BUNIK |
| Aircraft | B739/M-SDE2E3FGHIRWXY/LB1 |
Departure
| Time | 2026-04-16 10:22 |
|---|---|
| Airport | Hang Nadim International Airport (WIDD) |
Arrival
| Time | 2026-04-16 11:42 |
|---|---|
| Airport | Soekarno-Hatta International Airport (WIII) |
| Time | Latitude | Longitude | Altitude | Speed | Heading |
|---|---|---|---|---|---|
| 2026-04-16 09:57 | 1.12158 | 104.11496 | 134 ft | 0 kts | 312° |
| 2026-04-16 10:15 | 1.12157 | 104.11496 | 134 ft | 1 kts | 312° |
| 2026-04-16 10:15 | 1.12147 | 104.11508 | 134 ft | 3 kts | 310° |
| 2026-04-16 10:15 | 1.12134 | 104.11523 | 134 ft | 3 kts | 309° |
| 2026-04-16 10:15 | 1.12123 | 104.11536 | 134 ft | 3 kts | 308° |
| 2026-04-16 10:16 | 1.12114 | 104.11552 | 134 ft | 3 kts | 274° |
| 2026-04-16 10:16 | 1.12117 | 104.11568 | 134 ft | 3 kts | 233° |
| 2026-04-16 10:16 | 1.12128 | 104.11580 | 134 ft | 1 kts | 224° |
| 2026-04-16 10:16 | 1.12132 | 104.11583 | 134 ft | 0 kts | 224° |
| 2026-04-16 10:18 | 1.12129 | 104.11580 | 134 ft | 2 kts | 220° |
| 2026-04-16 10:18 | 1.12106 | 104.11578 | 134 ft | 5 kts | 179° |
| 2026-04-16 10:18 | 1.12060 | 104.11579 | 134 ft | 8 kts | 179° |
| 2026-04-16 10:18 | 1.11996 | 104.11563 | 134 ft | 11 kts | 217° |
| 2026-04-16 10:19 | 1.11930 | 104.11505 | 134 ft | 14 kts | 221° |
| 2026-04-16 10:19 | 1.11897 | 104.11476 | 134 ft | 15 kts | 221° |
| 2026-04-16 10:19 | 1.11819 | 104.11407 | 134 ft | 18 kts | 221° |
| 2026-04-16 10:19 | 1.11723 | 104.11321 | 134 ft | 20 kts | 222° |
| 2026-04-16 10:20 | 1.11617 | 104.11226 | 134 ft | 21 kts | 221° |
| 2026-04-16 10:20 | 1.11506 | 104.11174 | 134 ft | 17 kts | 123° |
| 2026-04-16 10:20 | 1.11528 | 104.11287 | 134 ft | 17 kts | 76° |
| 2026-04-16 10:20 | 1.11537 | 104.11375 | 134 ft | 9 kts | 38° |
| 2026-04-16 10:21 | 1.11551 | 104.11386 | 134 ft | 5 kts | 40° |
| 2026-04-16 10:21 | 1.11635 | 104.11459 | 134 ft | 36 kts | 42° |
| 2026-04-16 10:21 | 1.11982 | 104.11768 | 134 ft | 97 kts | 42° |
| 2026-04-16 10:21 | 1.12626 | 104.12340 | 135 ft | 149 kts | 41° |
| 2026-04-16 10:22 | 1.13476 | 104.13093 | 464 ft | 167 kts | 43° |
| 2026-04-16 10:22 | 1.14360 | 104.13884 | 1117 ft | 172 kts | 44° |
| 2026-04-16 10:22 | 1.15298 | 104.14725 | 1541 ft | 194 kts | 43° |
| 2026-04-16 10:22 | 1.16378 | 104.15683 | 1869 ft | 222 kts | 43° |
| 2026-04-16 10:23 | 1.17610 | 104.16770 | 2305 ft | 245 kts | 42° |
| 2026-04-16 10:23 | 1.18889 | 104.17895 | 3156 ft | 247 kts | 42° |
| 2026-04-16 10:23 | 1.20201 | 104.19047 | 3906 ft | 255 kts | 42° |
| 2026-04-16 10:23 | 1.21415 | 104.20430 | 4449 ft | 273 kts | 62° |
| 2026-04-16 10:24 | 1.21965 | 104.22240 | 5354 ft | 275 kts | 86° |
| 2026-04-16 10:24 | 1.21730 | 104.24102 | 6257 ft | 276 kts | 110° |
| 2026-04-16 10:24 | 1.20730 | 104.25754 | 7131 ft | 278 kts | 134° |
| 2026-04-16 10:24 | 1.19205 | 104.26960 | 7993 ft | 282 kts | 149° |
| 2026-04-16 10:25 | 1.17447 | 104.27800 | 8806 ft | 286 kts | 157° |
| 2026-04-16 10:25 | 1.15615 | 104.28601 | 9613 ft | 290 kts | 157° |
| 2026-04-16 10:25 | 1.13728 | 104.29416 | 10415 ft | 294 kts | 157° |
| 2026-04-16 10:25 | 1.11846 | 104.30231 | 11057 ft | 304 kts | 157° |
| 2026-04-16 10:26 | 1.09851 | 104.31096 | 11450 ft | 322 kts | 157° |
| 2026-04-16 10:26 | 1.07736 | 104.32014 | 11731 ft | 341 kts | 157° |
| 2026-04-16 10:26 | 1.05531 | 104.33057 | 11983 ft | 361 kts | 153° |
| 2026-04-16 10:26 | 1.03275 | 104.34296 | 12245 ft | 377 kts | 151° |
| 2026-04-16 10:27 | 1.00952 | 104.35587 | 12719 ft | 386 kts | 152° |
| 2026-04-16 10:27 | 0.98576 | 104.36860 | 13322 ft | 390 kts | 152° |
| 2026-04-16 10:27 | 0.96170 | 104.38146 | 13924 ft | 394 kts | 152° |
| 2026-04-16 10:27 | 0.93737 | 104.39441 | 14512 ft | 397 kts | 152° |
| 2026-04-16 10:28 | 0.91289 | 104.40744 | 15069 ft | 401 kts | 152° |
| 2026-04-16 10:28 | 0.88816 | 104.42061 | 15591 ft | 404 kts | 152° |
| 2026-04-16 10:28 | 0.86326 | 104.43385 | 16110 ft | 403 kts | 152° |
| 2026-04-16 10:28 | 0.83891 | 104.44692 | 16870 ft | 397 kts | 152° |
| 2026-04-16 10:29 | 0.81452 | 104.45990 | 17310 ft | 398 kts | 152° |
| 2026-04-16 10:29 | 0.78973 | 104.47303 | 17947 ft | 407 kts | 152° |
| 2026-04-16 10:29 | 0.76435 | 104.48645 | 18530 ft | 417 kts | 152° |
| 2026-04-16 10:29 | 0.73863 | 104.50011 | 18949 ft | 419 kts | 152° |
| 2026-04-16 10:30 | 0.71295 | 104.51382 | 19291 ft | 419 kts | 152° |
| 2026-04-16 10:30 | 0.68723 | 104.52767 | 19712 ft | 422 kts | 152° |
| 2026-04-16 10:30 | 0.66125 | 104.54144 | 20230 ft | 425 kts | 152° |
| 2026-04-16 10:30 | 0.63483 | 104.55547 | 20894 ft | 434 kts | 153° |
| 2026-04-16 10:31 | 0.60819 | 104.56965 | 21641 ft | 433 kts | 151° |
| 2026-04-16 10:31 | 0.58148 | 104.58403 | 22409 ft | 438 kts | 152° |
| 2026-04-16 10:31 | 0.55439 | 104.59854 | 23227 ft | 444 kts | 152° |
| 2026-04-16 10:31 | 0.52731 | 104.61259 | 23568 ft | 444 kts | 152° |
| 2026-04-16 10:32 | 0.50019 | 104.62713 | 23963 ft | 442 kts | 152° |
| 2026-04-16 10:32 | 0.47260 | 104.64084 | 24210 ft | 444 kts | 156° |
| 2026-04-16 10:32 | 0.44363 | 104.65186 | 24523 ft | 445 kts | 161° |
| 2026-04-16 10:32 | 0.41396 | 104.66118 | 24793 ft | 447 kts | 163° |
| 2026-04-16 10:33 | 0.38398 | 104.66968 | 24988 ft | 450 kts | 163° |
| 2026-04-16 10:33 | 0.35379 | 104.67800 | 25214 ft | 452 kts | 164° |
| 2026-04-16 10:33 | 0.32341 | 104.68670 | 25357 ft | 456 kts | 163° |
| 2026-04-16 10:33 | 0.29292 | 104.69557 | 25651 ft | 455 kts | 163° |
| 2026-04-16 10:34 | 0.26244 | 104.70461 | 25893 ft | 456 kts | 163° |
| 2026-04-16 10:34 | 0.23197 | 104.71353 | 26133 ft | 458 kts | 163° |
| 2026-04-16 10:34 | 0.20146 | 104.72272 | 26361 ft | 460 kts | 163° |
| 2026-04-16 10:34 | 0.17070 | 104.73180 | 26586 ft | 460 kts | 163° |
| 2026-04-16 10:35 | 0.14011 | 104.74116 | 26817 ft | 461 kts | 162° |
| 2026-04-16 10:35 | 0.10925 | 104.75028 | 27023 ft | 463 kts | 164° |
| 2026-04-16 10:35 | 0.07847 | 104.75930 | 27337 ft | 461 kts | 162° |
| 2026-04-16 10:35 | 0.04772 | 104.76834 | 27645 ft | 460 kts | 163° |
| 2026-04-16 10:36 | 0.01702 | 104.77738 | 27921 ft | 460 kts | 163° |
| 2026-04-16 10:36 | -0.01375 | 104.78633 | 28194 ft | 460 kts | 163° |
| 2026-04-16 10:36 | -0.07555 | 104.80492 | 28326 ft | 468 kts | 162° |
| 2026-04-16 10:37 | -0.13822 | 104.82356 | 28859 ft | 464 kts | 162° |
| 2026-04-16 10:37 | -0.16831 | 104.83249 | 29724 ft | 449 kts | 162° |
| 2026-04-16 10:37 | -0.19774 | 104.84124 | 30606 ft | 434 kts | 162° |
| 2026-04-16 10:38 | -0.22646 | 104.84977 | 31195 ft | 428 kts | 162° |
| 2026-04-16 10:38 | -0.25483 | 104.85868 | 31451 ft | 428 kts | 159° |
| 2026-04-16 10:38 | -0.28239 | 104.87019 | 31632 ft | 430 kts | 153° |
| 2026-04-16 10:38 | -0.30865 | 104.88448 | 31836 ft | 431 kts | 147° |
| 2026-04-16 10:39 | -0.33420 | 104.90007 | 32035 ft | 433 kts | 150° |
| 2026-04-16 10:39 | -0.36008 | 104.91486 | 32239 ft | 434 kts | 146° |
| 2026-04-16 10:39 | -0.38591 | 104.93008 | 32464 ft | 435 kts | 151° |
| 2026-04-16 10:39 | -0.41414 | 104.94125 | 32649 ft | 440 kts | 164° |
| 2026-04-16 10:40 | -0.44472 | 104.94497 | 32826 ft | 445 kts | 179° |
| 2026-04-16 10:40 | -0.47561 | 104.94157 | 33003 ft | 450 kts | 189° |
| 2026-04-16 10:40 | -0.50627 | 104.93468 | 33183 ft | 452 kts | 191° |
| 2026-04-16 10:40 | -0.53706 | 104.92799 | 33360 ft | 453 kts | 188° |
| 2026-04-16 10:41 | -0.56823 | 104.92628 | 33511 ft | 450 kts | 173° |
| 2026-04-16 10:41 | -0.59868 | 104.93282 | 33661 ft | 447 kts | 158° |
| 2026-04-16 10:41 | -0.62630 | 104.94670 | 33823 ft | 444 kts | 144° |
| 2026-04-16 10:41 | -0.65086 | 104.96535 | 33988 ft | 444 kts | 141° |
| 2026-04-16 10:42 | -0.69156 | 104.99677 | 34246 ft | 446 kts | 140° |
| 2026-04-16 10:42 | -0.72443 | 105.02226 | 34481 ft | 446 kts | 140° |
| 2026-04-16 10:42 | -0.74069 | 105.03487 | 34582 ft | 447 kts | 140° |
| 2026-04-16 10:43 | -0.76525 | 105.05392 | 34707 ft | 448 kts | 140° |
| 2026-04-16 10:43 | -0.78993 | 105.07307 | 34840 ft | 450 kts | 140° |
| 2026-04-16 10:43 | -0.81470 | 105.09227 | 34983 ft | 450 kts | 140° |
| 2026-04-16 10:43 | -0.83941 | 105.11145 | 35192 ft | 449 kts | 140° |
| 2026-04-16 10:44 | -0.86405 | 105.13055 | 35382 ft | 448 kts | 140° |
| 2026-04-16 10:44 | -0.88867 | 105.14966 | 35561 ft | 448 kts | 140° |
| 2026-04-16 10:44 | -0.91327 | 105.16874 | 35720 ft | 448 kts | 140° |
| 2026-04-16 10:44 | -0.93795 | 105.18787 | 35838 ft | 449 kts | 140° |
| 2026-04-16 10:45 | -0.98754 | 105.22634 | 35852 ft | 454 kts | 140° |
| 2026-04-16 10:45 | -1.03761 | 105.26518 | 35854 ft | 456 kts | 140° |
| 2026-04-16 10:46 | -1.08773 | 105.30406 | 35854 ft | 455 kts | 140° |
| 2026-04-16 10:46 | -1.13772 | 105.34284 | 35853 ft | 455 kts | 140° |
| 2026-04-16 10:47 | -1.18768 | 105.38161 | 35852 ft | 455 kts | 140° |
| 2026-04-16 10:47 | -1.23761 | 105.42034 | 35852 ft | 455 kts | 140° |
| 2026-04-16 10:48 | -1.28727 | 105.45888 | 35851 ft | 455 kts | 140° |
| 2026-04-16 10:48 | -1.33715 | 105.49758 | 35851 ft | 453 kts | 140° |
| 2026-04-16 10:49 | -1.38697 | 105.53624 | 35850 ft | 453 kts | 140° |
| 2026-04-16 10:49 | -1.43676 | 105.57488 | 35850 ft | 453 kts | 140° |
| 2026-04-16 10:50 | -1.48660 | 105.61356 | 35849 ft | 454 kts | 140° |
| 2026-04-16 10:50 | -1.53646 | 105.65226 | 35849 ft | 454 kts | 140° |
| 2026-04-16 10:51 | -1.58631 | 105.69096 | 35848 ft | 453 kts | 141° |
| 2026-04-16 10:51 | -1.63616 | 105.72965 | 35848 ft | 453 kts | 140° |
| 2026-04-16 10:52 | -1.68581 | 105.76819 | 35847 ft | 452 kts | 140° |
| 2026-04-16 10:52 | -1.73556 | 105.80682 | 35847 ft | 452 kts | 140° |
| 2026-04-16 10:53 | -1.78525 | 105.84541 | 35847 ft | 452 kts | 140° |
| 2026-04-16 10:53 | -1.83498 | 105.88402 | 35846 ft | 452 kts | 141° |
| 2026-04-16 10:54 | -1.88427 | 105.92230 | 35846 ft | 452 kts | 141° |
| 2026-04-16 10:54 | -1.93427 | 105.96112 | 35846 ft | 452 kts | 141° |
| 2026-04-16 10:55 | -1.98360 | 105.99943 | 35845 ft | 452 kts | 141° |
| 2026-04-16 10:55 | -2.03324 | 106.03799 | 35845 ft | 452 kts | 140° |
| 2026-04-16 10:56 | -2.08292 | 106.07659 | 35845 ft | 452 kts | 140° |
| 2026-04-16 10:56 | -2.13274 | 106.11504 | 35840 ft | 453 kts | 143° |
| 2026-04-16 10:57 | -2.18924 | 106.14299 | 35845 ft | 457 kts | 161° |
| 2026-04-16 10:57 | -2.25138 | 106.15704 | 35844 ft | 459 kts | 168° |
| 2026-04-16 10:58 | -2.31443 | 106.16751 | 35844 ft | 459 kts | 168° |
| 2026-04-16 10:58 | -2.37749 | 106.17813 | 35843 ft | 459 kts | 168° |
| 2026-04-16 10:59 | -2.44053 | 106.18886 | 35843 ft | 460 kts | 168° |
| 2026-04-16 10:59 | -2.50357 | 106.19962 | 35843 ft | 460 kts | 168° |
| 2026-04-16 11:00 | -2.56669 | 106.21040 | 35842 ft | 460 kts | 168° |
| 2026-04-16 11:00 | -2.62973 | 106.22118 | 35842 ft | 460 kts | 168° |
| 2026-04-16 11:01 | -2.69283 | 106.23198 | 35842 ft | 460 kts | 168° |
| 2026-04-16 11:01 | -2.75564 | 106.24273 | 35841 ft | 461 kts | 168° |
| 2026-04-16 11:02 | -2.81886 | 106.25355 | 35841 ft | 461 kts | 168° |
| 2026-04-16 11:02 | -2.88216 | 106.26439 | 35840 ft | 461 kts | 168° |
| 2026-04-16 11:03 | -2.94536 | 106.27521 | 35830 ft | 461 kts | 168° |
| 2026-04-16 11:04 | -3.04033 | 106.29147 | 35825 ft | 462 kts | 168° |
| 2026-04-16 11:04 | -3.10371 | 106.30232 | 35824 ft | 462 kts | 168° |
| 2026-04-16 11:05 | -3.16712 | 106.31318 | 35823 ft | 462 kts | 168° |
| 2026-04-16 11:05 | -3.23054 | 106.32405 | 35822 ft | 462 kts | 168° |
| 2026-04-16 11:06 | -3.29355 | 106.33485 | 35821 ft | 463 kts | 168° |
| 2026-04-16 11:06 | -3.35703 | 106.34572 | 35820 ft | 463 kts | 168° |
| 2026-04-16 11:07 | -3.42063 | 106.35662 | 35818 ft | 463 kts | 168° |
| 2026-04-16 11:07 | -3.48415 | 106.36751 | 35817 ft | 463 kts | 168° |
| 2026-04-16 11:08 | -3.54779 | 106.37842 | 35816 ft | 464 kts | 168° |
| 2026-04-16 11:08 | -3.61140 | 106.38933 | 35815 ft | 464 kts | 168° |
| 2026-04-16 11:09 | -3.67487 | 106.40085 | 35814 ft | 464 kts | 167° |
| 2026-04-16 11:09 | -3.73836 | 106.41281 | 35813 ft | 464 kts | 167° |
| 2026-04-16 11:10 | -3.80187 | 106.42472 | 35811 ft | 464 kts | 167° |
| 2026-04-16 11:10 | -3.86532 | 106.43661 | 35810 ft | 464 kts | 167° |
| 2026-04-16 11:11 | -3.92886 | 106.44851 | 35809 ft | 464 kts | 168° |
| 2026-04-16 11:11 | -3.99238 | 106.46040 | 35808 ft | 464 kts | 168° |
| 2026-04-16 11:12 | -4.05592 | 106.47229 | 35806 ft | 465 kts | 168° |
| 2026-04-16 11:12 | -4.11947 | 106.48419 | 35806 ft | 465 kts | 168° |
| 2026-04-16 11:13 | -4.18295 | 106.49607 | 35804 ft | 464 kts | 168° |
| 2026-04-16 11:13 | -4.24649 | 106.50798 | 35803 ft | 464 kts | 168° |
| 2026-04-16 11:14 | -4.30961 | 106.51980 | 35802 ft | 465 kts | 168° |
| 2026-04-16 11:14 | -4.37322 | 106.53172 | 35801 ft | 465 kts | 168° |
| 2026-04-16 11:15 | -4.43682 | 106.54364 | 35801 ft | 464 kts | 168° |
| 2026-04-16 11:15 | -4.50028 | 106.55554 | 35801 ft | 464 kts | 168° |
| 2026-04-16 11:16 | -4.56384 | 106.56745 | 35799 ft | 464 kts | 168° |
| 2026-04-16 11:16 | -4.62734 | 106.57936 | 35798 ft | 464 kts | 168° |
| 2026-04-16 11:17 | -4.69087 | 106.59127 | 35797 ft | 464 kts | 168° |
| 2026-04-16 11:17 | -4.75438 | 106.60319 | 35796 ft | 465 kts | 168° |
| 2026-04-16 11:18 | -4.81789 | 106.61511 | 35795 ft | 464 kts | 168° |
| 2026-04-16 11:18 | -4.87998 | 106.63226 | 35796 ft | 462 kts | 158° |
| 2026-04-16 11:19 | -4.93888 | 106.65818 | 35795 ft | 462 kts | 154° |
| 2026-04-16 11:19 | -4.99731 | 106.68520 | 35804 ft | 462 kts | 154° |
| 2026-04-16 11:20 | -5.05476 | 106.71152 | 35807 ft | 441 kts | 154° |
| 2026-04-16 11:20 | -5.08221 | 106.72407 | 35653 ft | 430 kts | 154° |
| 2026-04-16 11:20 | -5.10961 | 106.73660 | 34694 ft | 437 kts | 154° |
| 2026-04-16 11:20 | -5.13759 | 106.74940 | 33539 ft | 449 kts | 154° |
| 2026-04-16 11:21 | -5.16636 | 106.76255 | 32403 ft | 459 kts | 154° |
| 2026-04-16 11:21 | -5.19563 | 106.77589 | 31334 ft | 465 kts | 155° |
| 2026-04-16 11:21 | -5.22505 | 106.78917 | 30666 ft | 455 kts | 155° |
| 2026-04-16 11:21 | -5.25311 | 106.80186 | 30370 ft | 430 kts | 155° |
| 2026-04-16 11:22 | -5.27971 | 106.81390 | 30171 ft | 410 kts | 155° |
| 2026-04-16 11:22 | -5.30515 | 106.82542 | 30028 ft | 392 kts | 155° |
| 2026-04-16 11:22 | -5.32947 | 106.83644 | 29624 ft | 378 kts | 155° |
| 2026-04-16 11:22 | -5.35357 | 106.84736 | 28393 ft | 384 kts | 154° |
| 2026-04-16 11:23 | -5.37828 | 106.85857 | 26952 ft | 395 kts | 154° |
| 2026-04-16 11:23 | -5.40353 | 106.87002 | 25539 ft | 405 kts | 154° |
| 2026-04-16 11:23 | -5.42966 | 106.88185 | 24463 ft | 417 kts | 154° |
| 2026-04-16 11:23 | -5.45728 | 106.89089 | 24085 ft | 421 kts | 168° |
| 2026-04-16 11:24 | -5.48644 | 106.89236 | 23628 ft | 430 kts | 182° |
| 2026-04-16 11:24 | -5.51602 | 106.88673 | 22906 ft | 434 kts | 194° |
| 2026-04-16 11:24 | -5.54448 | 106.87675 | 22265 ft | 432 kts | 200° |
| 2026-04-16 11:24 | -5.57212 | 106.86517 | 21638 ft | 429 kts | 201° |
| 2026-04-16 11:25 | -5.59953 | 106.85374 | 21017 ft | 424 kts | 201° |
| 2026-04-16 11:25 | -5.62684 | 106.84281 | 20400 ft | 420 kts | 200° |
| 2026-04-16 11:25 | -5.65393 | 106.83221 | 19789 ft | 417 kts | 200° |
| 2026-04-16 11:25 | -5.68085 | 106.82176 | 19182 ft | 413 kts | 200° |
| 2026-04-16 11:26 | -5.70756 | 106.81142 | 18579 ft | 409 kts | 200° |
| 2026-04-16 11:26 | -5.73400 | 106.80120 | 17982 ft | 406 kts | 200° |
| 2026-04-16 11:26 | -5.76022 | 106.79109 | 17386 ft | 402 kts | 200° |
| 2026-04-16 11:26 | -5.78623 | 106.78105 | 16794 ft | 399 kts | 200° |
| 2026-04-16 11:27 | -5.81198 | 106.77111 | 16205 ft | 395 kts | 201° |
| 2026-04-16 11:27 | -5.83735 | 106.76077 | 15614 ft | 392 kts | 206° |
| 2026-04-16 11:27 | -5.85960 | 106.74530 | 15044 ft | 388 kts | 224° |
| 2026-04-16 11:27 | -5.87624 | 106.72419 | 14409 ft | 386 kts | 238° |
| 2026-04-16 11:28 | -5.88843 | 106.70026 | 13805 ft | 384 kts | 246° |
| 2026-04-16 11:28 | -5.89765 | 106.67522 | 13215 ft | 381 kts | 250° |
| 2026-04-16 11:28 | -5.90661 | 106.65039 | 12631 ft | 377 kts | 248° |
| 2026-04-16 11:28 | -5.91299 | 106.63420 | 12233 ft | 375 kts | 247° |
| 2026-04-16 11:29 | -5.92268 | 106.60998 | 11608 ft | 372 kts | 247° |
| 2026-04-16 11:29 | -5.93231 | 106.58590 | 11000 ft | 370 kts | 248° |
| 2026-04-16 11:29 | -5.94168 | 106.56202 | 10410 ft | 367 kts | 247° |
| 2026-04-16 11:29 | -5.95136 | 106.53854 | 10020 ft | 358 kts | 246° |
| 2026-04-16 11:30 | -5.96070 | 106.51600 | 10003 ft | 339 kts | 247° |
| 2026-04-16 11:30 | -5.97223 | 106.48790 | 9918 ft | 319 kts | 247° |
| 2026-04-16 11:30 | -5.98046 | 106.46778 | 9842 ft | 304 kts | 247° |
| 2026-04-16 11:30 | -5.98828 | 106.44860 | 9802 ft | 289 kts | 247° |
| 2026-04-16 11:31 | -5.99336 | 106.43611 | 9697 ft | 283 kts | 247° |
| 2026-04-16 11:31 | -6.00083 | 106.41777 | 9191 ft | 287 kts | 247° |
| 2026-04-16 11:31 | -6.00840 | 106.39918 | 8770 ft | 287 kts | 247° |
| 2026-04-16 11:31 | -6.01594 | 106.38065 | 8398 ft | 285 kts | 247° |
| 2026-04-16 11:32 | -6.02333 | 106.36250 | 8196 ft | 278 kts | 247° |
| 2026-04-16 11:32 | -6.03063 | 106.34460 | 7844 ft | 276 kts | 246° |
| 2026-04-16 11:32 | -6.04024 | 106.32810 | 7456 ft | 274 kts | 226° |
| 2026-04-16 11:32 | -6.05606 | 106.31868 | 7104 ft | 269 kts | 195° |
| 2026-04-16 11:33 | -6.07480 | 106.31744 | 6591 ft | 274 kts | 174° |
| 2026-04-16 11:33 | -6.09380 | 106.32064 | 6200 ft | 273 kts | 167° |
| 2026-04-16 11:33 | -6.11233 | 106.32483 | 5822 ft | 272 kts | 167° |
| 2026-04-16 11:33 | -6.13059 | 106.32853 | 5455 ft | 272 kts | 169° |
| 2026-04-16 11:34 | -6.14909 | 106.33192 | 5202 ft | 266 kts | 169° |
| 2026-04-16 11:34 | -6.16686 | 106.33509 | 5135 ft | 253 kts | 169° |
| 2026-04-16 11:34 | -6.18375 | 106.33809 | 5073 ft | 240 kts | 169° |
| 2026-04-16 11:34 | -6.19959 | 106.34219 | 4988 ft | 232 kts | 155° |
| 2026-04-16 11:35 | -6.21213 | 106.35194 | 4878 ft | 229 kts | 131° |
| 2026-04-16 11:35 | -6.22134 | 106.36498 | 4627 ft | 228 kts | 122° |
| 2026-04-16 11:35 | -6.22952 | 106.37860 | 4371 ft | 226 kts | 120° |
| 2026-04-16 11:35 | -6.23617 | 106.39277 | 4105 ft | 224 kts | 104° |
| 2026-04-16 11:36 | -6.23561 | 106.40806 | 3997 ft | 215 kts | 78° |
| 2026-04-16 11:36 | -6.23119 | 106.42222 | 3818 ft | 210 kts | 70° |
| 2026-04-16 11:36 | -6.22583 | 106.43566 | 3657 ft | 205 kts | 68° |
| 2026-04-16 11:36 | -6.22047 | 106.44880 | 3524 ft | 200 kts | 68° |
| 2026-04-16 11:37 | -6.21539 | 106.46137 | 3411 ft | 189 kts | 68° |
| 2026-04-16 11:37 | -6.21064 | 106.47320 | 3271 ft | 177 kts | 69° |
| 2026-04-16 11:37 | -6.20605 | 106.48464 | 3160 ft | 176 kts | 69° |
| 2026-04-16 11:37 | -6.20147 | 106.49610 | 3055 ft | 177 kts | 69° |
| 2026-04-16 11:38 | -6.19688 | 106.50758 | 2927 ft | 179 kts | 69° |
| 2026-04-16 11:38 | -6.19220 | 106.51929 | 2678 ft | 180 kts | 68° |
| 2026-04-16 11:38 | -6.18756 | 106.53091 | 2361 ft | 178 kts | 68° |
| 2026-04-16 11:38 | -6.18302 | 106.54230 | 2127 ft | 173 kts | 68° |
| 2026-04-16 11:39 | -6.17860 | 106.55336 | 1890 ft | 167 kts | 68° |
| 2026-04-16 11:39 | -6.17435 | 106.56401 | 1675 ft | 160 kts | 68° |
| 2026-04-16 11:39 | -6.17031 | 106.57413 | 1448 ft | 153 kts | 68° |
| 2026-04-16 11:39 | -6.16639 | 106.58393 | 1247 ft | 149 kts | 67° |
| 2026-04-16 11:40 | -6.16262 | 106.59337 | 1057 ft | 146 kts | 67° |
| 2026-04-16 11:40 | -6.15885 | 106.60281 | 868 ft | 145 kts | 67° |
| 2026-04-16 11:40 | -6.15508 | 106.61226 | 676 ft | 146 kts | 67° |
| 2026-04-16 11:40 | -6.15127 | 106.62180 | 481 ft | 145 kts | 67° |
| 2026-04-16 11:41 | -6.14751 | 106.63107 | 293 ft | 145 kts | 67° |
| 2026-04-16 11:41 | -6.14374 | 106.64053 | 137 ft | 144 kts | 68° |
| 2026-04-16 11:41 | -6.14009 | 106.64978 | 44 ft | 142 kts | 67° |
| 2026-04-16 11:41 | -6.13703 | 106.65740 | 43 ft | 88 kts | 68° |
| 2026-04-16 11:42 | -6.13549 | 106.66124 | 42 ft | 31 kts | 67° |
| 2026-04-16 11:42 | -6.13455 | 106.66241 | 42 ft | 15 kts | 38° |
| 2026-04-16 11:42 | -6.13399 | 106.66284 | 42 ft | 0 kts | 36° |
| 2026-04-16 11:42 | -6.13399 | 106.66285 | 42 ft | 0 kts | 36° |
| 2026-04-16 11:43 | -6.13390 | 106.66291 | 42 ft | 2 kts | 36° |
| 2026-04-16 11:43 | -6.13370 | 106.66304 | 42 ft | 6 kts | 23° |
| 2026-04-16 11:43 | -6.13310 | 106.66295 | 42 ft | 9 kts | 340° |
| 2026-04-16 11:43 | -6.13300 | 106.66250 | 42 ft | 9 kts | 243° |
| 2026-04-16 11:44 | -6.13329 | 106.66192 | 42 ft | 10 kts | 246° |
| 2026-04-16 11:44 | -6.13357 | 106.66127 | 42 ft | 10 kts | 248° |
| 2026-04-16 11:44 | -6.13384 | 106.66058 | 42 ft | 12 kts | 248° |
| 2026-04-16 11:44 | -6.13417 | 106.65974 | 42 ft | 14 kts | 248° |
| 2026-04-16 11:45 | -6.13435 | 106.65878 | 42 ft | 15 kts | 305° |
| 2026-04-16 11:45 | -6.13364 | 106.65839 | 42 ft | 7 kts | 339° |
| 2026-04-16 11:45 | -6.13309 | 106.65824 | 42 ft | 9 kts | 356° |
| 2026-04-16 11:45 | -6.13257 | 106.65801 | 42 ft | 9 kts | 290° |
| 2026-04-16 11:46 | -6.13248 | 106.65760 | 42 ft | 0 kts | 281° |
| 2026-04-16 11:46 | -6.13248 | 106.65761 | 42 ft | 0 kts | 281° |